Capitol Logistics 2220


KSDF
Louisville International Airport-Standiford Field
Louisville, Kentucky, US
KIAD
Washington Dulles International Airport
Dulles, Virginia, US

Activity Log

Date Flight Route Aircraft Duration
01/20/2020 CPX2220 HYK HVQ GIBBZ3 B763 1h 18m
12/04/2019 CPX2220 HYK HVQ GIBBZ3 B763 1h 23m
04/04/2018 CPX990 FEDRA3 SHIPR HVQ GIBBZ2 B744 1h 17m

Route Details

Aircraft Information
Primary: Boeing 767-300BDSF
Backup: Boeing 757-200SF
Date Restrictions
Between:Nov 16, 2019
Dec 31, 2019
Route Data
Distance: 392nm
Sched. Duration: 1h 01m
Avg. Duration: 1h 19m (+19m)
Times Flown: 3
Recm'd Route: HYK HVQ GIBBZ3
Planned Altitude: 33,000ft
Origin Wx: KSDF 170856Z 26007KT 10SM -RASN OVC015 02/00 A2983 RMK AO2 SLP104 P0000 60000 T00220000 58003
Dest. Wx: KIAD 170852Z 21008KT 10SM OVC055 01/M05 A2972 RMK AO2 SLP065 T00061050 50012
Notes: SEASONAL FLIGHT | UPS SURGE OPS CONTRACT

Financial History
Total Freight: 398,442lbs
Average Load: 132,814lbs/flt
Fuel Used: 52,168lbs
Avg. Fuel Used: 17,389lbs/flt
Fuel Expense: $43,222
Avg. Fuel Expense: $14,407
Avg. Fuel Cost: $0.81/lbs
Total Gross Income: $291,161
Pilot Pay: $537
Total Expenses: $31,601
Total Revenue: $215,391
Average Revenue: $97,053.63